sensor_id;sensor_type;location;lat;lon;timestamp;temperature;humidity
2174;DHT22;1093;51.424;11.764;2022-07-23T00:01:53;18.90;1.40
2174;DHT22;1093;51.424;11.764;2022-07-23T00:04:20;18.90;1.40
2174;DHT22;1093;51.424;11.764;2022-07-23T00:06:47;18.90;1.40
2174;DHT22;1093;51.424;11.764;2022-07-23T00:09:14;18.80;1.40
2174;DHT22;1093;51.424;11.764;2022-07-23T00:11:40;18.80;1.40
2174;DHT22;1093;51.424;11.764;2022-07-23T00:14:07;18.80;1.40
2174;DHT22;1093;51.424;11.764;2022-07-23T00:16:34;18.80;1.40
2174;DHT22;1093;51.424;11.764;2022-07-23T00:19:02;18.70;1.40
2174;DHT22;1093;51.424;11.764;2022-07-23T00:21:29;18.70;1.40
2174;DHT22;1093;51.424;11.764;2022-07-23T00:23:56;18.70;1.40
2174;DHT22;1093;51.424;11.764;2022-07-23T00:26:22;18.60;1.40
2174;DHT22;1093;51.424;11.764;2022-07-23T00:28:49;18.60;1.40
2174;DHT22;1093;51.424;11.764;2022-07-23T00:31:16;18.60;1.40
2174;DHT22;1093;51.424;11.764;2022-07-23T00:33:43;18.70;1.40
2174;DHT22;1093;51.424;11.764;2022-07-23T00:36:11;18.70;1.40
2174;DHT22;1093;51.424;11.764;2022-07-23T00:38:38;18.70;1.40
2174;DHT22;1093;51.424;11.764;2022-07-23T00:41:05;18.60;1.40
2174;DHT22;1093;51.424;11.764;2022-07-23T00:43:32;18.60;1.40
2174;DHT22;1093;51.424;11.764;2022-07-23T00:45:59;18.60;1.40
2174;DHT22;1093;51.424;11.764;2022-07-23T00:48:25;18.70;1.40
2174;DHT22;1093;51.424;11.764;2022-07-23T00:50:52;18.70;1.40
2174;DHT22;1093;51.424;11.764;2022-07-23T00:53:21;18.60;1.40
2174;DHT22;1093;51.424;11.764;2022-07-23T00:55:48;18.60;1.40
2174;DHT22;1093;51.424;11.764;2022-07-23T00:58:16;18.60;1.40
2174;DHT22;1093;51.424;11.764;2022-07-23T01:00:42;18.60;1.40
2174;DHT22;1093;51.424;11.764;2022-07-23T01:03:09;18.60;1.40
2174;DHT22;1093;51.424;11.764;2022-07-23T01:05:36;18.60;1.40
2174;DHT22;1093;51.424;11.764;2022-07-23T01:08:05;18.60;1.40
2174;DHT22;1093;51.424;11.764;2022-07-23T01:10:33;18.50;1.40
2174;DHT22;1093;51.424;11.764;2022-07-23T01:13:01;18.50;1.40
2174;DHT22;1093;51.424;11.764;2022-07-23T01:15:28;18.50;1.40
2174;DHT22;1093;51.424;11.764;2022-07-23T01:17:55;18.50;1.40
2174;DHT22;1093;51.424;11.764;2022-07-23T01:20:22;18.50;1.40
2174;DHT22;1093;51.424;11.764;2022-07-23T01:22:52;18.40;1.40
2174;DHT22;1093;51.424;11.764;2022-07-23T01:25:19;18.40;1.40
2174;DHT22;1093;51.424;11.764;2022-07-23T01:27:45;18.40;1.40
2174;DHT22;1093;51.424;11.764;2022-07-23T01:30:12;18.40;1.40
2174;DHT22;1093;51.424;11.764;2022-07-23T01:32:40;18.40;1.40
2174;DHT22;1093;51.424;11.764;2022-07-23T01:35:08;18.40;1.40
2174;DHT22;1093;51.424;11.764;2022-07-23T01:37:35;18.40;1.40
2174;DHT22;1093;51.424;11.764;2022-07-23T01:40:05;18.40;1.40
2174;DHT22;1093;51.424;11.764;2022-07-23T01:42:32;18.30;1.40
2174;DHT22;1093;51.424;11.764;2022-07-23T01:44:59;18.40;1.40
2174;DHT22;1093;51.424;11.764;2022-07-23T01:47:26;18.30;1.40
2174;DHT22;1093;51.424;11.764;2022-07-23T01:49:53;18.30;1.40
2174;DHT22;1093;51.424;11.764;2022-07-23T01:52:20;18.30;1.40
2174;DHT22;1093;51.424;11.764;2022-07-23T01:54:46;18.30;1.40
2174;DHT22;1093;51.424;11.764;2022-07-23T01:57:15;18.30;1.40
2174;DHT22;1093;51.424;11.764;2022-07-23T01:59:42;18.40;1.40
2174;DHT22;1093;51.424;11.764;2022-07-23T02:02:09;18.30;1.40
2174;DHT22;1093;51.424;11.764;2022-07-23T02:04:36;18.30;1.40
2174;DHT22;1093;51.424;11.764;2022-07-23T02:07:04;18.30;1.40
2174;DHT22;1093;51.424;11.764;2022-07-23T02:09:31;18.30;1.40
2174;DHT22;1093;51.424;11.764;2022-07-23T02:11:59;18.30;1.40
2174;DHT22;1093;51.424;11.764;2022-07-23T02:14:27;18.30;1.40
2174;DHT22;1093;51.424;11.764;2022-07-23T02:16:54;18.30;1.40
2174;DHT22;1093;51.424;11.764;2022-07-23T02:19:21;18.30;1.40
2174;DHT22;1093;51.424;11.764;2022-07-23T02:21:48;18.30;1.40
2174;DHT22;1093;51.424;11.764;2022-07-23T02:24:15;18.30;1.40
2174;DHT22;1093;51.424;11.764;2022-07-23T02:26:42;18.30;1.40
2174;DHT22;1093;51.424;11.764;2022-07-23T02:29:09;18.30;1.40
2174;DHT22;1093;51.424;11.764;2022-07-23T02:31:37;18.30;1.40
2174;DHT22;1093;51.424;11.764;2022-07-23T02:34:04;18.30;1.40
2174;DHT22;1093;51.424;11.764;2022-07-23T02:36:31;18.30;1.40
2174;DHT22;1093;51.424;11.764;2022-07-23T02:39:04;18.20;1.40
2174;DHT22;1093;51.424;11.764;2022-07-23T02:41:30;18.20;1.40
2174;DHT22;1093;51.424;11.764;2022-07-23T02:43:57;18.20;1.40
2174;DHT22;1093;51.424;11.764;2022-07-23T02:46:24;18.20;1.40
2174;DHT22;1093;51.424;11.764;2022-07-23T02:48:52;18.30;1.40
2174;DHT22;1093;51.424;11.764;2022-07-23T02:51:23;18.40;1.40
2174;DHT22;1093;51.424;11.764;2022-07-23T02:53:53;18.40;1.40
2174;DHT22;1093;51.424;11.764;2022-07-23T02:56:22;18.50;1.40
2174;DHT22;1093;51.424;11.764;2022-07-23T02:59:03;18.40;1.40
2174;DHT22;1093;51.424;11.764;2022-07-23T03:04:53;18.20;1.40
2174;DHT22;1093;51.424;11.764;2022-07-23T03:07:20;18.20;1.40
2174;DHT22;1093;51.424;11.764;2022-07-23T03:09:47;18.20;1.40
2174;DHT22;1093;51.424;11.764;2022-07-23T03:12:14;18.10;1.40
2174;DHT22;1093;51.424;11.764;2022-07-23T03:14:56;18.10;1.40
2174;DHT22;1093;51.424;11.764;2022-07-23T03:17:23;18.00;1.40
2174;DHT22;1093;51.424;11.764;2022-07-23T03:19:54;18.00;1.40
2174;DHT22;1093;51.424;11.764;2022-07-23T03:22:21;18.00;1.40
2174;DHT22;1093;51.424;11.764;2022-07-23T03:24:48;18.00;1.40
2174;DHT22;1093;51.424;11.764;2022-07-23T03:27:29;18.00;1.40
2174;DHT22;1093;51.424;11.764;2022-07-23T03:29:57;17.90;1.40
2174;DHT22;1093;51.424;11.764;2022-07-23T03:32:26;17.90;1.40
2174;DHT22;1093;51.424;11.764;2022-07-23T03:34:58;17.80;1.40
2174;DHT22;1093;51.424;11.764;2022-07-23T03:37:27;17.80;1.40
2174;DHT22;1093;51.424;11.764;2022-07-23T03:39:53;17.80;1.40
2174;DHT22;1093;51.424;11.764;2022-07-23T03:42:20;17.80;1.40
2174;DHT22;1093;51.424;11.764;2022-07-23T03:44:50;17.80;1.40
2174;DHT22;1093;51.424;11.764;2022-07-23T03:47:24;17.80;1.40
2174;DHT22;1093;51.424;11.764;2022-07-23T03:49:52;17.80;1.40
2174;DHT22;1093;51.424;11.764;2022-07-23T03:52:20;17.80;1.40
2174;DHT22;1093;51.424;11.764;2022-07-23T03:55:15;17.80;1.40
2174;DHT22;1093;51.424;11.764;2022-07-23T03:58:04;17.80;1.40
2174;DHT22;1093;51.424;11.764;2022-07-23T04:00:46;17.70;1.40
2174;DHT22;1093;51.424;11.764;2022-07-23T04:03:30;17.70;1.40
2174;DHT22;1093;51.424;11.764;2022-07-23T04:06:26;17.60;1.40
2174;DHT22;1093;51.424;11.764;2022-07-23T04:19:21;17.40;1.40
2174;DHT22;1093;51.424;11.764;2022-07-23T04:25:38;17.40;1.40
2174;DHT22;1093;51.424;11.764;2022-07-23T04:32:28;17.30;1.40
2174;DHT22;1093;51.424;11.764;2022-07-23T04:39:33;17.40;1.40
2174;DHT22;1093;51.424;11.764;2022-07-23T04:42:41;17.30;1.40
2174;DHT22;1093;51.424;11.764;2022-07-23T04:45:57;17.30;1.40
2174;DHT22;1093;51.424;11.764;2022-07-23T04:55:48;17.30;1.40
2174;DHT22;1093;51.424;11.764;2022-07-23T04:58:14;17.30;1.40
2174;DHT22;1093;51.424;11.764;2022-07-23T05:00:41;17.30;1.40
2174;DHT22;1093;51.424;11.764;2022-07-23T05:03:08;17.30;1.40
2174;DHT22;1093;51.424;11.764;2022-07-23T05:05:41;17.30;1.40
2174;DHT22;1093;51.424;11.764;2022-07-23T05:08:07;17.30;1.40
2174;DHT22;1093;51.424;11.764;2022-07-23T05:10:34;17.30;1.40
2174;DHT22;1093;51.424;11.764;2022-07-23T05:13:04;17.30;1.40
2174;DHT22;1093;51.424;11.764;2022-07-23T05:18:54;17.40;1.40
2174;DHT22;1093;51.424;11.764;2022-07-23T05:21:20;17.40;1.40
2174;DHT22;1093;51.424;11.764;2022-07-23T05:23:47;17.30;1.40
2174;DHT22;1093;51.424;11.764;2022-07-23T05:26:16;17.30;1.40
2174;DHT22;1093;51.424;11.764;2022-07-23T05:28:44;17.30;1.40
2174;DHT22;1093;51.424;11.764;2022-07-23T05:31:11;17.40;1.40
2174;DHT22;1093;51.424;11.764;2022-07-23T05:33:37;17.40;1.40
2174;DHT22;1093;51.424;11.764;2022-07-23T05:36:06;17.40;1.40
2174;DHT22;1093;51.424;11.764;2022-07-23T05:38:33;17.40;1.40
2174;DHT22;1093;51.424;11.764;2022-07-23T05:41:00;17.40;1.40
2174;DHT22;1093;51.424;11.764;2022-07-23T05:43:27;17.30;1.40
2174;DHT22;1093;51.424;11.764;2022-07-23T05:45:55;17.20;1.40
2174;DHT22;1093;51.424;11.764;2022-07-23T05:48:22;17.20;1.40
2174;DHT22;1093;51.424;11.764;2022-07-23T05:50:49;17.20;1.40
2174;DHT22;1093;51.424;11.764;2022-07-23T05:53:18;17.20;1.40
2174;DHT22;1093;51.424;11.764;2022-07-23T05:55:52;17.20;1.40
2174;DHT22;1093;51.424;11.764;2022-07-23T05:58:19;17.20;1.40
2174;DHT22;1093;51.424;11.764;2022-07-23T06:00:48;17.20;1.40
2174;DHT22;1093;51.424;11.764;2022-07-23T06:03:20;17.30;1.40
2174;DHT22;1093;51.424;11.764;2022-07-23T06:05:51;17.30;1.40
2174;DHT22;1093;51.424;11.764;2022-07-23T06:08:22;17.40;1.40
2174;DHT22;1093;51.424;11.764;2022-07-23T06:10:53;17.30;1.40
2174;DHT22;1093;51.424;11.764;2022-07-23T06:13:25;17.30;1.40
2174;DHT22;1093;51.424;11.764;2022-07-23T06:15:52;17.30;1.40
2174;DHT22;1093;51.424;11.764;2022-07-23T06:34:39;17.30;1.40
2174;DHT22;1093;51.424;11.764;2022-07-23T06:37:33;17.30;1.40
2174;DHT22;1093;51.424;11.764;2022-07-23T06:40:10;17.30;1.40
2174;DHT22;1093;51.424;11.764;2022-07-23T06:49:26;17.40;1.40
2174;DHT22;1093;51.424;11.764;2022-07-23T06:51:53;17.40;1.40
2174;DHT22;1093;51.424;11.764;2022-07-23T06:54:20;17.50;1.40
2174;DHT22;1093;51.424;11.764;2022-07-23T06:57:05;17.50;1.40
2174;DHT22;1093;51.424;11.764;2022-07-23T06:59:32;17.50;1.40
2174;DHT22;1093;51.424;11.764;2022-07-23T07:02:02;17.40;1.40
2174;DHT22;1093;51.424;11.764;2022-07-23T07:18:30;17.60;1.40
2174;DHT22;1093;51.424;11.764;2022-07-23T07:20:52;17.60;1.40
2174;DHT22;1093;51.424;11.764;2022-07-23T07:23:22;17.60;1.40
2174;DHT22;1093;51.424;11.764;2022-07-23T07:25:52;17.60;1.40
2174;DHT22;1093;51.424;11.764;2022-07-23T07:28:21;17.60;1.40
2174;DHT22;1093;51.424;11.764;2022-07-23T07:30:54;17.70;1.40
2174;DHT22;1093;51.424;11.764;2022-07-23T07:33:24;17.70;1.40
2174;DHT22;1093;51.424;11.764;2022-07-23T07:35:55;17.70;1.40
2174;DHT22;1093;51.424;11.764;2022-07-23T07:38:28;17.80;1.40
2174;DHT22;1093;51.424;11.764;2022-07-23T07:41:00;17.80;1.40
2174;DHT22;1093;51.424;11.764;2022-07-23T07:43:30;17.80;1.40
2174;DHT22;1093;51.424;11.764;2022-07-23T07:46:06;17.80;1.40
2174;DHT22;1093;51.424;11.764;2022-07-23T07:48:35;17.90;1.40
2174;DHT22;1093;51.424;11.764;2022-07-23T07:51:06;17.90;1.40
2174;DHT22;1093;51.424;11.764;2022-07-23T07:53:36;18.00;1.40
2174;DHT22;1093;51.424;11.764;2022-07-23T07:56:05;18.00;1.40
2174;DHT22;1093;51.424;11.764;2022-07-23T07:58:35;18.00;1.40
2174;DHT22;1093;51.424;11.764;2022-07-23T08:01:07;18.00;1.40
2174;DHT22;1093;51.424;11.764;2022-07-23T08:03:37;18.10;1.40
2174;DHT22;1093;51.424;11.764;2022-07-23T08:06:07;18.10;1.40
2174;DHT22;1093;51.424;11.764;2022-07-23T08:08:37;18.10;1.40
2174;DHT22;1093;51.424;11.764;2022-07-23T08:11:04;18.10;1.40
2174;DHT22;1093;51.424;11.764;2022-07-23T08:13:43;18.10;1.40
2174;DHT22;1093;51.424;11.764;2022-07-23T08:16:13;18.20;1.40
2174;DHT22;1093;51.424;11.764;2022-07-23T08:18:42;18.20;1.40
2174;DHT22;1093;51.424;11.764;2022-07-23T08:21:17;18.20;1.40
2174;DHT22;1093;51.424;11.764;2022-07-23T08:23:43;18.30;1.40
2174;DHT22;1093;51.424;11.764;2022-07-23T08:26:16;18.30;1.40
2174;DHT22;1093;51.424;11.764;2022-07-23T08:28:46;18.30;1.40
2174;DHT22;1093;51.424;11.764;2022-07-23T08:31:31;18.20;1.40
2174;DHT22;1093;51.424;11.764;2022-07-23T08:33:59;18.30;1.40
2174;DHT22;1093;51.424;11.764;2022-07-23T08:36:30;18.20;1.40
2174;DHT22;1093;51.424;11.764;2022-07-23T08:42:19;18.30;1.40
2174;DHT22;1093;51.424;11.764;2022-07-23T08:48:13;18.30;1.40
2174;DHT22;1093;51.424;11.764;2022-07-23T08:57:17;18.40;1.40
2174;DHT22;1093;51.424;11.764;2022-07-23T09:00:34;18.40;1.40
2174;DHT22;1093;51.424;11.764;2022-07-23T09:03:04;18.40;1.40
2174;DHT22;1093;51.424;11.764;2022-07-23T09:05:50;18.40;1.40
2174;DHT22;1093;51.424;11.764;2022-07-23T09:12:08;18.40;1.40
2174;DHT22;1093;51.424;11.764;2022-07-23T09:18:16;18.50;1.40
2174;DHT22;1093;51.424;11.764;2022-07-23T09:20:45;18.50;1.40
2174;DHT22;1093;51.424;11.764;2022-07-23T09:26:44;18.60;1.40
2174;DHT22;1093;51.424;11.764;2022-07-23T09:29:14;18.50;1.40
2174;DHT22;1093;51.424;11.764;2022-07-23T09:35:06;18.50;1.40
2174;DHT22;1093;51.424;11.764;2022-07-23T09:37:33;18.50;1.40
2174;DHT22;1093;51.424;11.764;2022-07-23T09:40:13;18.60;1.40
2174;DHT22;1093;51.424;11.764;2022-07-23T09:42:55;18.60;1.40
2174;DHT22;1093;51.424;11.764;2022-07-23T09:45:21;18.60;1.40
2174;DHT22;1093;51.424;11.764;2022-07-23T09:48:10;18.70;1.40
2174;DHT22;1093;51.424;11.764;2022-07-23T09:54:01;18.80;1.40
2174;DHT22;1093;51.424;11.764;2022-07-23T09:56:33;18.80;1.40
2174;DHT22;1093;51.424;11.764;2022-07-23T09:59:23;18.80;1.40
2174;DHT22;1093;51.424;11.764;2022-07-23T10:02:23;18.80;1.40
2174;DHT22;1093;51.424;11.764;2022-07-23T10:04:53;18.90;1.40
2174;DHT22;1093;51.424;11.764;2022-07-23T10:14:05;18.90;1.40
2174;DHT22;1093;51.424;11.764;2022-07-23T10:16:45;19.00;1.40
2174;DHT22;1093;51.424;11.764;2022-07-23T10:25:43;19.10;1.40
2174;DHT22;1093;51.424;11.764;2022-07-23T10:28:27;19.10;1.40
2174;DHT22;1093;51.424;11.764;2022-07-23T10:31:04;19.10;1.40
2174;DHT22;1093;51.424;11.764;2022-07-23T10:33:45;19.20;1.40
2174;DHT22;1093;51.424;11.764;2022-07-23T10:39:34;19.40;1.40
2174;DHT22;1093;51.424;11.764;2022-07-23T10:52:33;19.90;1.40
2174;DHT22;1093;51.424;11.764;2022-07-23T11:01:33;20.10;1.40
2174;DHT22;1093;51.424;11.764;2022-07-23T11:07:29;20.30;1.40
2174;DHT22;1093;51.424;11.764;2022-07-23T11:09:58;20.50;1.40
2174;DHT22;1093;51.424;11.764;2022-07-23T11:12:33;20.60;1.40
2174;DHT22;1093;51.424;11.764;2022-07-23T11:15:02;20.70;1.40
2174;DHT22;1093;51.424;11.764;2022-07-23T11:17:29;20.70;1.40
2174;DHT22;1093;51.424;11.764;2022-07-23T11:20:19;20.90;1.40
2174;DHT22;1093;51.424;11.764;2022-07-23T11:22:48;20.90;1.40
2174;DHT22;1093;51.424;11.764;2022-07-23T11:25:30;21.00;1.40
2174;DHT22;1093;51.424;11.764;2022-07-23T11:28:09;21.10;1.40
2174;DHT22;1093;51.424;11.764;2022-07-23T11:30:39;21.30;1.40
2174;DHT22;1093;51.424;11.764;2022-07-23T11:33:20;21.40;1.40
2174;DHT22;1093;51.424;11.764;2022-07-23T11:35:49;21.40;1.40
2174;DHT22;1093;51.424;11.764;2022-07-23T11:38:18;21.50;1.40
2174;DHT22;1093;51.424;11.764;2022-07-23T11:40:49;21.50;1.40
2174;DHT22;1093;51.424;11.764;2022-07-23T11:43:17;21.60;1.40
2174;DHT22;1093;51.424;11.764;2022-07-23T11:45:48;21.80;1.40
2174;DHT22;1093;51.424;11.764;2022-07-23T11:48:18;21.90;1.40
2174;DHT22;1093;51.424;11.764;2022-07-23T11:50:48;22.10;1.40
2174;DHT22;1093;51.424;11.764;2022-07-23T11:53:25;22.30;1.40
2174;DHT22;1093;51.424;11.764;2022-07-23T11:56:03;22.30;1.40
2174;DHT22;1093;51.424;11.764;2022-07-23T11:58:30;22.40;1.40
2174;DHT22;1093;51.424;11.764;2022-07-23T12:00:57;22.50;1.40
2174;DHT22;1093;51.424;11.764;2022-07-23T12:03:23;22.50;1.40
2174;DHT22;1093;51.424;11.764;2022-07-23T12:05:56;22.70;1.40
2174;DHT22;1093;51.424;11.764;2022-07-23T12:08:25;22.80;1.40
2174;DHT22;1093;51.424;11.764;2022-07-23T12:10:53;23.00;1.40
2174;DHT22;1093;51.424;11.764;2022-07-23T12:13:21;23.20;1.40
2174;DHT22;1093;51.424;11.764;2022-07-23T12:15:57;23.30;1.40
2174;DHT22;1093;51.424;11.764;2022-07-23T12:18:26;23.50;1.40
2174;DHT22;1093;51.424;11.764;2022-07-23T12:21:02;23.60;1.40
2174;DHT22;1093;51.424;11.764;2022-07-23T12:23:48;23.70;1.40
2174;DHT22;1093;51.424;11.764;2022-07-23T12:26:18;23.90;1.40
2174;DHT22;1093;51.424;11.764;2022-07-23T12:28:54;24.00;1.40
2174;DHT22;1093;51.424;11.764;2022-07-23T12:31:26;24.10;1.40
2174;DHT22;1093;51.424;11.764;2022-07-23T12:33:53;24.30;1.40
2174;DHT22;1093;51.424;11.764;2022-07-23T12:36:19;24.40;1.40
2174;DHT22;1093;51.424;11.764;2022-07-23T12:38:48;24.50;1.40
2174;DHT22;1093;51.424;11.764;2022-07-23T12:41:15;24.60;1.40
2174;DHT22;1093;51.424;11.764;2022-07-23T12:43:45;24.70;1.40
2174;DHT22;1093;51.424;11.764;2022-07-23T12:46:16;24.70;1.40
2174;DHT22;1093;51.424;11.764;2022-07-23T12:48:51;24.80;1.40
2174;DHT22;1093;51.424;11.764;2022-07-23T12:51:19;24.90;1.40
2174;DHT22;1093;51.424;11.764;2022-07-23T12:53:50;24.90;1.40
2174;DHT22;1093;51.424;11.764;2022-07-23T12:56:18;24.90;1.40
2174;DHT22;1093;51.424;11.764;2022-07-23T12:58:48;25.00;1.40
2174;DHT22;1093;51.424;11.764;2022-07-23T13:01:26;25.20;1.40
2174;DHT22;1093;51.424;11.764;2022-07-23T13:04:03;25.10;1.40
2174;DHT22;1093;51.424;11.764;2022-07-23T13:06:31;25.30;1.40
2174;DHT22;1093;51.424;11.764;2022-07-23T13:08:58;25.50;1.40
2174;DHT22;1093;51.424;11.764;2022-07-23T13:11:25;25.50;1.40
2174;DHT22;1093;51.424;11.764;2022-07-23T13:13:53;25.50;1.40
2174;DHT22;1093;51.424;11.764;2022-07-23T13:16:20;25.60;1.40
2174;DHT22;1093;51.424;11.764;2022-07-23T13:18:47;25.60;1.40
2174;DHT22;1093;51.424;11.764;2022-07-23T13:21:14;25.50;1.40
2174;DHT22;1093;51.424;11.764;2022-07-23T13:23:42;25.70;1.40
2174;DHT22;1093;51.424;11.764;2022-07-23T13:26:09;25.80;1.40
2174;DHT22;1093;51.424;11.764;2022-07-23T13:28:36;25.90;1.40
2174;DHT22;1093;51.424;11.764;2022-07-23T13:31:05;26.00;1.40
2174;DHT22;1093;51.424;11.764;2022-07-23T13:33:32;26.20;1.40
2174;DHT22;1093;51.424;11.764;2022-07-23T13:35:58;26.50;1.40
2174;DHT22;1093;51.424;11.764;2022-07-23T13:38:25;26.50;1.40
2174;DHT22;1093;51.424;11.764;2022-07-23T13:40:53;26.60;1.40
2174;DHT22;1093;51.424;11.764;2022-07-23T13:43:22;26.40;1.40
2174;DHT22;1093;51.424;11.764;2022-07-23T13:45:49;26.60;1.40
2174;DHT22;1093;51.424;11.764;2022-07-23T13:48:22;26.70;1.40
2174;DHT22;1093;51.424;11.764;2022-07-23T13:50:50;26.80;1.40
2174;DHT22;1093;51.424;11.764;2022-07-23T13:53:25;26.80;1.40
2174;DHT22;1093;51.424;11.764;2022-07-23T13:56:00;26.90;1.40
2174;DHT22;1093;51.424;11.764;2022-07-23T13:58:26;27.00;1.40
2174;DHT22;1093;51.424;11.764;2022-07-23T14:00:53;26.90;1.40
2174;DHT22;1093;51.424;11.764;2022-07-23T14:03:22;27.00;1.40
2174;DHT22;1093;51.424;11.764;2022-07-23T14:05:49;27.10;1.40
2174;DHT22;1093;51.424;11.764;2022-07-23T14:08:16;27.10;1.40
2174;DHT22;1093;51.424;11.764;2022-07-23T14:10:43;27.10;1.40
2174;DHT22;1093;51.424;11.764;2022-07-23T14:13:09;27.20;1.40
2174;DHT22;1093;51.424;11.764;2022-07-23T14:15:36;27.20;1.40
2174;DHT22;1093;51.424;11.764;2022-07-23T14:18:05;27.40;1.40
2174;DHT22;1093;51.424;11.764;2022-07-23T14:20:34;27.50;1.40
2174;DHT22;1093;51.424;11.764;2022-07-23T14:23:01;27.40;1.40
2174;DHT22;1093;51.424;11.764;2022-07-23T14:25:30;27.30;1.40
2174;DHT22;1093;51.424;11.764;2022-07-23T14:28:03;27.20;1.40
2174;DHT22;1093;51.424;11.764;2022-07-23T14:30:30;27.40;1.40
2174;DHT22;1093;51.424;11.764;2022-07-23T14:33:02;27.30;1.40
2174;DHT22;1093;51.424;11.764;2022-07-23T14:35:35;27.20;1.40
2174;DHT22;1093;51.424;11.764;2022-07-23T14:38:03;27.30;1.40
2174;DHT22;1093;51.424;11.764;2022-07-23T14:40:33;27.40;1.40
2174;DHT22;1093;51.424;11.764;2022-07-23T14:43:03;27.70;1.40
2174;DHT22;1093;51.424;11.764;2022-07-23T14:45:32;27.50;1.40
2174;DHT22;1093;51.424;11.764;2022-07-23T14:48:03;27.60;1.40
2174;DHT22;1093;51.424;11.764;2022-07-23T14:50:32;27.50;1.40
2174;DHT22;1093;51.424;11.764;2022-07-23T14:53:00;27.60;1.40
2174;DHT22;1093;51.424;11.764;2022-07-23T14:55:27;27.60;1.40
2174;DHT22;1093;51.424;11.764;2022-07-23T14:57:53;27.40;1.40
2174;DHT22;1093;51.424;11.764;2022-07-23T15:00:20;27.40;1.40
2174;DHT22;1093;51.424;11.764;2022-07-23T15:02:47;27.40;1.40
2174;DHT22;1093;51.424;11.764;2022-07-23T15:05:14;27.40;1.40
2174;DHT22;1093;51.424;11.764;2022-07-23T15:07:40;27.50;1.40
2174;DHT22;1093;51.424;11.764;2022-07-23T15:10:08;27.50;1.40
2174;DHT22;1093;51.424;11.764;2022-07-23T15:12:35;27.60;1.40
2174;DHT22;1093;51.424;11.764;2022-07-23T15:15:03;27.80;1.40
2174;DHT22;1093;51.424;11.764;2022-07-23T15:17:30;28.10;1.40
2174;DHT22;1093;51.424;11.764;2022-07-23T15:20:05;28.00;1.40
2174;DHT22;1093;51.424;11.764;2022-07-23T15:22:32;28.10;1.40
2174;DHT22;1093;51.424;11.764;2022-07-23T15:24:59;28.20;1.40
2174;DHT22;1093;51.424;11.764;2022-07-23T15:27:28;28.10;1.40
2174;DHT22;1093;51.424;11.764;2022-07-23T15:29:54;28.00;1.40
2174;DHT22;1093;51.424;11.764;2022-07-23T15:32:21;27.90;1.40
2174;DHT22;1093;51.424;11.764;2022-07-23T15:34:50;27.80;1.40
2174;DHT22;1093;51.424;11.764;2022-07-23T15:37:17;27.80;1.40
2174;DHT22;1093;51.424;11.764;2022-07-23T15:39:44;27.70;1.40
2174;DHT22;1093;51.424;11.764;2022-07-23T15:42:39;27.50;1.40
2174;DHT22;1093;51.424;11.764;2022-07-23T15:45:37;27.40;1.40
2174;DHT22;1093;51.424;11.764;2022-07-23T15:48:51;27.40;1.40
2174;DHT22;1093;51.424;11.764;2022-07-23T15:51:54;27.40;1.40
2174;DHT22;1093;51.424;11.764;2022-07-23T15:54:29;27.40;1.40
2174;DHT22;1093;51.424;11.764;2022-07-23T15:56:55;27.50;1.40
2174;DHT22;1093;51.424;11.764;2022-07-23T15:59:33;27.50;1.40
2174;DHT22;1093;51.424;11.764;2022-07-23T16:02:00;27.50;1.40
2174;DHT22;1093;51.424;11.764;2022-07-23T16:04:27;27.60;1.40
2174;DHT22;1093;51.424;11.764;2022-07-23T16:06:54;27.70;1.40
2174;DHT22;1093;51.424;11.764;2022-07-23T16:09:22;27.80;1.40
2174;DHT22;1093;51.424;11.764;2022-07-23T16:11:48;27.80;1.40
2174;DHT22;1093;51.424;11.764;2022-07-23T16:14:16;27.80;1.40
2174;DHT22;1093;51.424;11.764;2022-07-23T16:16:47;27.80;1.40
2174;DHT22;1093;51.424;11.764;2022-07-23T16:19:32;27.80;1.40
2174;DHT22;1093;51.424;11.764;2022-07-23T16:22:10;27.70;1.40
2174;DHT22;1093;51.424;11.764;2022-07-23T16:28:02;27.90;1.40
2174;DHT22;1093;51.424;11.764;2022-07-23T16:30:55;27.80;1.40
2174;DHT22;1093;51.424;11.764;2022-07-23T16:33:48;27.80;1.40
2174;DHT22;1093;51.424;11.764;2022-07-23T16:36:17;27.70;1.40
2174;DHT22;1093;51.424;11.764;2022-07-23T16:38:55;27.60;1.40
2174;DHT22;1093;51.424;11.764;2022-07-23T16:41:29;27.40;1.40
2174;DHT22;1093;51.424;11.764;2022-07-23T17:08:36;26.70;1.40
2174;DHT22;1093;51.424;11.764;2022-07-23T17:12:10;26.60;1.40
2174;DHT22;1093;51.424;11.764;2022-07-23T17:14:51;26.60;1.40
2174;DHT22;1093;51.424;11.764;2022-07-23T17:21:09;26.50;1.40
2174;DHT22;1093;51.424;11.764;2022-07-23T17:24:18;26.40;1.40
2174;DHT22;1093;51.424;11.764;2022-07-23T17:27:03;26.20;1.40
2174;DHT22;1093;51.424;11.764;2022-07-23T17:30:06;26.10;1.40
2174;DHT22;1093;51.424;11.764;2022-07-23T17:36:29;25.80;1.40
2174;DHT22;1093;51.424;11.764;2022-07-23T17:39:42;25.70;1.40
2174;DHT22;1093;51.424;11.764;2022-07-23T17:42:32;25.60;1.40
2174;DHT22;1093;51.424;11.764;2022-07-23T17:45:44;25.50;1.40
2174;DHT22;1093;51.424;11.764;2022-07-23T17:49:04;25.40;1.40
2174;DHT22;1093;51.424;11.764;2022-07-23T17:52:26;25.30;1.40
2174;DHT22;1093;51.424;11.764;2022-07-23T18:08:51;25.00;1.40
2174;DHT22;1093;51.424;11.764;2022-07-23T18:11:43;25.00;1.40
2174;DHT22;1093;51.424;11.764;2022-07-23T18:14:40;24.90;1.40
2174;DHT22;1093;51.424;11.764;2022-07-23T18:18:05;24.80;1.40
2174;DHT22;1093;51.424;11.764;2022-07-23T18:24:45;24.70;1.40
2174;DHT22;1093;51.424;11.764;2022-07-23T18:27:34;24.50;1.40
2174;DHT22;1093;51.424;11.764;2022-07-23T18:36:32;24.30;1.40
2174;DHT22;1093;51.424;11.764;2022-07-23T18:47:20;23.80;1.40
2174;DHT22;1093;51.424;11.764;2022-07-23T18:49:47;23.70;1.40
2174;DHT22;1093;51.424;11.764;2022-07-23T18:52:13;23.60;1.40
2174;DHT22;1093;51.424;11.764;2022-07-23T18:54:40;23.60;1.40
2174;DHT22;1093;51.424;11.764;2022-07-23T18:57:07;23.50;1.40
2174;DHT22;1093;51.424;11.764;2022-07-23T19:02:21;23.30;1.40
2174;DHT22;1093;51.424;11.764;2022-07-23T19:04:48;23.20;1.40
2174;DHT22;1093;51.424;11.764;2022-07-23T19:07:15;23.20;1.40
2174;DHT22;1093;51.424;11.764;2022-07-23T19:09:41;23.10;1.40
2174;DHT22;1093;51.424;11.764;2022-07-23T19:12:14;23.00;1.40
2174;DHT22;1093;51.424;11.764;2022-07-23T19:15:04;23.00;1.40
2174;DHT22;1093;51.424;11.764;2022-07-23T19:24:38;22.70;1.40
2174;DHT22;1093;51.424;11.764;2022-07-23T19:27:04;22.50;1.40
2174;DHT22;1093;51.424;11.764;2022-07-23T19:29:31;22.40;1.40
2174;DHT22;1093;51.424;11.764;2022-07-23T19:32:01;22.30;1.40
2174;DHT22;1093;51.424;11.764;2022-07-23T19:34:28;22.20;1.40
2174;DHT22;1093;51.424;11.764;2022-07-23T19:36:55;22.10;1.40
2174;DHT22;1093;51.424;11.764;2022-07-23T19:39:23;22.10;1.40
2174;DHT22;1093;51.424;11.764;2022-07-23T19:41:51;21.90;1.40
2174;DHT22;1093;51.424;11.764;2022-07-23T19:44:21;21.90;1.40
2174;DHT22;1093;51.424;11.764;2022-07-23T19:46:47;21.70;1.40
2174;DHT22;1093;51.424;11.764;2022-07-23T19:49:14;21.60;1.40
2174;DHT22;1093;51.424;11.764;2022-07-23T19:51:41;21.50;1.40
2174;DHT22;1093;51.424;11.764;2022-07-23T19:54:07;21.40;1.40
2174;DHT22;1093;51.424;11.764;2022-07-23T19:56:34;21.30;1.40
2174;DHT22;1093;51.424;11.764;2022-07-23T19:59:02;21.20;1.40
2174;DHT22;1093;51.424;11.764;2022-07-23T20:01:29;21.10;1.40
2174;DHT22;1093;51.424;11.764;2022-07-23T20:04:00;21.00;1.40
2174;DHT22;1093;51.424;11.764;2022-07-23T20:06:30;20.90;1.40
2174;DHT22;1093;51.424;11.764;2022-07-23T20:09:01;20.80;1.40
2174;DHT22;1093;51.424;11.764;2022-07-23T20:11:28;20.70;1.40
2174;DHT22;1093;51.424;11.764;2022-07-23T20:13:58;20.60;1.40